Time;durP1;ratioP1;P1;durP2;ratioP2;P2;SDS_P1;SDS_P2;PMS_P1;PMS_P2;Temp;Humidity;BMP_temperature;BMP_pressure;BME280_temperature;BME280_humidity;BME280_pressure;Samples;Min_cycle;Max_cycle;Signal;HPM_P1;HPM_P2
2021/09/14 05:57:04;;;;;;;;;9.25;9.25;;;;;20.82;69.84;101003.84;5049115;23;1193841;-84
2021/09/14 05:59:29;;;;;;;;;12.75;12.00;;;;;20.77;69.82;101000.66;4920808;28;45373;-84
2021/09/14 06:01:54;;;;;;;;;12.00;9.00;;;;;20.74;68.55;101006.25;4893749;28;45410;-82
2021/09/14 06:04:20;;;;;;;;;11.00;10.25;;;;;20.76;69.40;101005.19;4917575;28;45398;-84
2021/09/14 06:06:45;;;;;;;;;10.25;10.25;;;;;20.69;69.67;100999.41;4919743;28;45290;-85
2021/09/14 06:09:11;;;;;;;;;12.75;11.25;;;;;20.67;69.14;101009.34;4897207;28;46866;-84
2021/09/14 06:11:36;;;;;;;;;11.00;9.25;;;;;20.69;69.83;101019.94;4917489;28;45506;-84
2021/09/14 06:14:01;;;;;;;;;12.75;12.75;;;;;20.71;68.51;101038.50;4921598;28;45429;-84
2021/09/14 06:16:27;;;;;;;;;8.00;8.00;;;;;20.73;68.88;101047.25;4899820;29;46241;-84
2021/09/14 06:18:52;;;;;;;;;12.25;9.00;;;;;20.77;68.28;101054.09;4893373;28;47139;-84
2021/09/14 06:21:17;;;;;;;;;11.00;9.75;;;;;20.77;68.41;101054.09;4920180;28;45419;-84
2021/09/14 06:23:43;;;;;;;;;10.75;9.75;;;;;20.85;68.70;101069.56;4902653;28;45436;-84
2021/09/14 06:26:08;;;;;;;;;8.50;7.75;;;;;20.86;68.64;101056.13;4919669;28;45401;-84
2021/09/14 06:28:34;;;;;;;;;10.25;9.25;;;;;20.88;67.90;101051.50;4920299;28;45900;-84
2021/09/14 06:30:59;;;;;;;;;9.50;9.00;;;;;20.92;67.89;101049.47;4918855;28;45402;-85
2021/09/14 06:33:24;;;;;;;;;10.00;9.00;;;;;20.95;68.41;101040.38;4921046;28;45447;-84
2021/09/14 06:35:51;;;;;;;;;9.25;8.75;;;;;20.99;68.42;101034.69;4922538;28;45450;-84
2021/09/14 06:38:16;;;;;;;;;12.50;10.50;;;;;21.03;68.38;101030.00;4919550;28;45373;-85
2021/09/14 06:40:41;;;;;;;;;11.00;11.00;;;;;21.02;68.09;101025.63;4922834;28;45394;-85
2021/09/14 06:43:07;;;;;;;;;14.00;10.50;;;;;21.00;68.76;101023.06;4923236;28;45233;-85
2021/09/14 06:45:32;;;;;;;;;12.75;11.75;;;;;21.01;68.03;101026.59;4904416;28;45790;-85
2021/09/14 06:47:58;;;;;;;;;13.50;11.00;;;;;20.99;69.46;101036.53;4923061;28;45354;-85
2021/09/14 06:50:23;;;;;;;;;8.50;7.50;;;;;20.99;68.09;101041.88;4905073;28;45386;-85
2021/09/14 06:52:49;;;;;;;;;11.00;8.00;;;;;21.04;69.32;101053.09;4905586;28;45575;-85
2021/09/14 06:55:15;;;;;;;;;12.00;9.25;;;;;21.08;69.02;101067.94;4920127;28;45832;-85
2021/09/14 06:57:41;;;;;;;;;10.25;8.50;;;;;21.00;68.86;101071.16;4922946;28;46139;-85
2021/09/14 07:00:07;;;;;;;;;14.75;12.00;;;;;21.02;68.93;101085.28;4923105;28;45537;-84
2021/09/14 07:02:33;;;;;;;;;12.75;9.25;;;;;21.08;68.63;101100.00;4905861;28;45534;-85
2021/09/14 07:04:58;;;;;;;;;11.00;9.25;;;;;21.08;68.68;101100.00;4922653;28;45521;-85
2021/09/14 07:07:23;;;;;;;;;8.75;8.50;;;;;21.10;69.37;101087.38;4923998;28;45446;-86
2021/09/14 07:09:49;;;;;;;;;13.50;11.25;;;;;21.11;70.51;101067.69;4921816;28;45456;-86
2021/09/14 07:12:15;;;;;;;;;11.75;11.00;;;;;21.02;70.65;101047.84;4920730;28;45435;-85
2021/09/14 07:14:40;;;;;;;;;13.75;13.50;;;;;21.01;71.42;101040.78;4910649;28;45210;-85
2021/09/14 07:17:06;;;;;;;;;24.25;19.75;;;;;20.93;71.38;101037.81;4905416;28;46756;-86
2021/09/14 07:19:31;;;;;;;;;17.75;14.00;;;;;20.79;71.77;101020.97;4905655;28;45412;-85
2021/09/14 07:21:56;;;;;;;;;19.75;17.25;;;;;20.77;71.92;101030.91;4922554;28;45191;-86
2021/09/14 07:24:22;;;;;;;;;19.25;14.75;;;;;20.74;71.89;101033.78;4905347;28;45980;-84
2021/09/14 07:26:47;;;;;;;;;9.50;9.00;;;;;20.69;71.30;101026.13;4899729;28;48085;-87
2021/09/14 07:29:12;;;;;;;;;14.75;12.25;;;;;20.68;72.37;101008.41;4918825;28;46343;-87
2021/09/14 07:31:41;;;;;;;;;15.25;13.00;;;;;20.72;72.24;101006.34;4906429;28;45261;-87
2021/09/14 07:34:06;;;;;;;;;14.50;10.75;;;;;20.66;70.85;100999.66;4923230;28;45568;-88
2021/09/14 07:36:31;;;;;;;;;10.50;9.00;;;;;20.75;70.63;101011.47;4914980;28;46651;-87
2021/09/14 07:38:57;;;;;;;;;17.25;14.50;;;;;20.75;72.06;101003.47;4904469;28;45525;-87
2021/09/14 07:41:22;;;;;;;;;14.75;13.25;;;;;20.77;72.62;100990.84;4908634;28;45391;-86
2021/09/14 07:43:48;;;;;;;;;17.00;14.00;;;;;20.78;72.59;100997.03;4912635;28;45369;-87
2021/09/14 07:46:13;;;;;;;;;10.50;10.00;;;;;20.85;73.13;101003.66;4917374;28;45494;-87
2021/09/14 07:48:38;;;;;;;;;10.25;8.50;;;;;20.78;71.62;100997.03;4922182;28;45434;-87
2021/09/14 07:51:04;;;;;;;;;13.50;10.75;;;;;20.87;70.97;101012.41;4906405;28;45518;-88
2021/09/14 07:53:30;;;;;;;;;11.00;10.00;;;;;20.96;70.58;101021.56;4923271;28;45184;-87
2021/09/14 07:55:55;;;;;;;;;10.75;10.75;;;;;21.05;70.03;101030.75;4922667;28;45462;-88
2021/09/14 07:58:21;;;;;;;;;13.50;12.00;;;;;21.09;70.06;101021.53;4919932;28;45697;-86
2021/09/14 08:00:46;;;;;;;;;15.00;12.25;;;;;21.14;70.43;101024.72;4904993;28;45481;-87
2021/09/14 08:03:12;;;;;;;;;11.50;10.00;;;;;21.21;69.88;101026.97;4921857;28;45896;-86
2021/09/14 08:05:39;;;;;;;;;12.75;9.00;;;;;21.25;69.62;101031.97;4919739;28;46096;-87
2021/09/14 08:08:06;;;;;;;;;13.00;11.75;;;;;21.30;71.20;101028.94;4921261;28;45560;-87
2021/09/14 08:10:31;;;;;;;;;13.00;9.00;;;;;21.32;71.32;101037.69;4921550;28;45621;-87
2021/09/14 08:12:56;;;;;;;;;12.00;12.00;;;;;21.33;71.02;101025.19;4905374;28;46135;-87
2021/09/14 08:15:22;;;;;;;;;10.50;9.00;;;;;21.38;71.20;101028.38;4905723;28;47840;-87
2021/09/14 08:17:47;;;;;;;;;9.75;9.50;;;;;21.41;71.20;101035.31;4918234;28;45706;-87
2021/09/14 08:20:12;;;;;;;;;12.75;8.75;;;;;21.42;70.20;101027.16;4897896;28;45486;-86
2021/09/14 08:22:38;;;;;;;;;9.50;8.25;;;;;21.48;69.25;101023.19;4913460;28;45495;-86
2021/09/14 08:25:05;;;;;;;;;9.75;9.75;;;;;21.54;69.50;101025.38;4914894;28;45371;-85
2021/09/14 08:27:30;;;;;;;;;10.00;9.25;;;;;21.57;69.74;101030.50;4919650;28;45307;-86
2021/09/14 08:29:55;;;;;;;;;7.50;6.75;;;;;21.61;70.05;101027.63;4904190;28;45279;-86
2021/09/14 08:32:21;;;;;;;;;11.50;9.50;;;;;21.66;69.70;101036.97;4922610;28;45408;-86
2021/09/14 08:34:46;;;;;;;;;11.25;11.25;;;;;21.65;70.58;101040.63;4922491;28;46581;-86
2021/09/14 08:37:12;;;;;;;;;10.50;8.00;;;;;21.69;70.05;101049.25;4921884;28;45268;-86
2021/09/14 08:39:37;;;;;;;;;11.75;9.00;;;;;21.68;70.44;101043.06;4922921;28;45363;-85
2021/09/14 08:42:03;;;;;;;;;12.75;11.00;;;;;21.71;70.21;101041.97;4908213;28;45205;-85
2021/09/14 08:44:28;;;;;;;;;10.50;9.00;;;;;21.71;70.55;101041.97;4903662;29;45553;-85
2021/09/14 08:46:54;;;;;;;;;10.75;9.25;;;;;21.72;71.40;101040.16;4898475;28;45604;-87
2021/09/14 08:49:20;;;;;;;;;10.50;8.50;;;;;21.76;70.02;101057.66;4918359;28;45334;-87
2021/09/14 08:51:46;;;;;;;;;13.50;9.25;;;;;21.72;69.26;101058.88;4903612;29;45398;-86
2021/09/14 08:54:12;;;;;;;;;9.25;8.25;;;;;21.70;68.95;101065.19;4912971;28;45874;-86
2021/09/14 08:56:37;;;;;;;;;8.50;8.50;;;;;21.74;68.98;101075.66;4917024;28;45538;-86
2021/09/14 08:59:04;;;;;;;;;9.00;9.00;;;;;21.79;69.92;101081.50;4905281;28;45409;-86
2021/09/14 09:01:30;;;;;;;;;11.25;9.50;;;;;21.78;69.06;101067.28;4922398;28;45299;-86
2021/09/14 09:04:01;;;;;;;;;11.25;11.25;;;;;21.81;69.50;101077.75;4921152;28;46707;-87
2021/09/14 09:06:34;;;;;;;;;13.25;12.00;;;;;21.85;69.59;101074.84;4921265;28;45378;-86
2021/09/14 09:09:09;;;;;;;;;9.50;9.50;;;;;21.85;69.88;101080.22;4919156;28;45571;-86
2021/09/14 09:11:35;;;;;;;;;9.50;8.50;;;;;21.82;69.24;101075.94;4916932;28;45487;-86
2021/09/14 09:14:00;;;;;;;;;10.75;9.00;;;;;21.85;69.88;101081.06;4903867;28;48571;-86
2021/09/14 09:16:28;;;;;;;;;9.25;8.25;;;;;21.89;70.14;101079.88;4920724;28;45343;-87
2021/09/14 09:18:54;;;;;;;;;13.00;9.25;;;;;21.91;69.72;101080.63;4921454;28;45490;-86
2021/09/14 09:21:39;;;;;;;;;12.00;10.75;;;;;21.92;69.41;101078.81;4903813;28;47266;-85
2021/09/14 09:24:08;;;;;;;;;10.50;8.75;;;;;21.97;68.89;101073.94;4896365;28;47451;-85
2021/09/14 09:26:39;;;;;;;;;10.25;10.25;;;;;21.99;69.10;101069.34;4912932;28;46665;-84
2021/09/14 09:29:08;;;;;;;;;7.50;7.50;;;;;21.98;68.86;101061.41;4922444;28;45409;-86
2021/09/14 09:31:35;;;;;;;;;10.75;10.50;;;;;22.02;68.94;101071.78;4902986;28;47174;-87
2021/09/14 09:34:08;;;;;;;;;11.25;11.00;;;;;22.09;69.06;101082.00;4896422;28;47301;-82
2021/09/14 09:36:37;;;;;;;;;13.25;11.00;;;;;22.04;69.74;101071.66;4904699;28;45592;-87
2021/09/14 09:39:12;;;;;;;;;12.00;9.50;;;;;22.08;69.58;101074.94;4922167;28;45302;-85
2021/09/14 09:41:48;;;;;;;;;9.50;9.00;;;;;22.09;68.70;101068.63;4904503;28;47003;-85
2021/09/14 09:44:14;;;;;;;;;10.75;9.75;;;;;22.12;69.07;101068.38;4918101;28;46641;-84
2021/09/14 09:46:40;;;;;;;;;10.75;9.50;;;;;22.13;68.87;101059.38;4900283;28;45264;-85
2021/09/14 09:49:16;;;;;;;;;11.50;11.50;;;;;22.16;68.91;101051.09;4894114;29;45283;-88
2021/09/14 09:51:42;;;;;;;;;11.00;11.00;;;;;22.23;68.67;101062.19;4895411;28;46879;-87
2021/09/14 09:54:08;;;;;;;;;13.75;11.75;;;;;22.22;69.52;101045.28;4902927;28;47302;-84
2021/09/14 09:56:34;;;;;;;;;11.00;9.00;;;;;22.26;68.59;101051.25;4902824;28;45273;-87
2021/09/14 09:59:03;;;;;;;;;14.50;13.75;;;;;22.25;69.56;101050.38;4904251;28;45548;-89
2021/09/14 10:01:29;;;;;;;;;15.00;10.50;;;;;22.33;68.82;101055.13;4920776;28;45454;-89
2021/09/14 10:04:14;;;;;;;;;14.00;14.00;;;;;22.39;69.52;101051.13;4903343;28;46362;-85
2021/09/14 10:06:45;;;;;;;;;12.00;10.00;;;;;22.38;69.12;101049.41;4920518;28;47230;-86
2021/09/14 10:09:10;;;;;;;;;9.75;9.25;;;;;22.39;68.85;101055.63;4924325;28;45484;-85
2021/09/14 10:11:37;;;;;;;;;12.75;12.25;;;;;22.45;70.46;101058.66;4923595;28;45525;-86
2021/09/14 10:14:10;;;;;;;;;10.50;9.50;;;;;22.43;68.76;101046.38;4924201;28;45538;-84
2021/09/14 10:16:38;;;;;;;;;9.25;9.25;;;;;22.46;69.11;101046.13;4920701;28;45449;-86
2021/09/14 10:19:09;;;;;;;;;13.25;9.75;;;;;22.45;68.97;101039.94;4922054;28;45343;-85
2021/09/14 10:21:35;;;;;;;;;11.00;9.25;;;;;22.54;68.33;101054.44;4904387;28;47511;-86
2021/09/14 10:24:01;;;;;;;;;12.25;11.75;;;;;22.56;69.36;101051.63;4923213;28;46616;-86
2021/09/14 10:26:34;;;;;;;;;10.25;10.25;;;;;22.58;67.96;101060.38;4920720;28;45525;-86
2021/09/14 10:29:13;;;;;;;;;14.25;12.00;;;;;22.57;68.81;101058.69;4922439;28;45317;-85
2021/09/14 10:31:39;;;;;;;;;10.00;9.00;;;;;22.61;67.74;101062.81;4905075;28;46199;-86
2021/09/14 10:34:07;;;;;;;;;12.00;11.00;;;;;22.59;67.99;101059.41;4923259;28;45552;-86
2021/09/14 10:36:35;;;;;;;;;12.25;11.00;;;;;22.65;68.71;101063.41;4923372;28;45606;-86
2021/09/14 10:39:02;;;;;;;;;12.00;9.75;;;;;22.65;68.15;101066.94;4906404;28;45430;-87
2021/09/14 10:41:38;;;;;;;;;8.00;7.75;;;;;22.60;67.61;101063.78;4904678;28;47103;-86
2021/09/14 10:44:08;;;;;;;;;10.50;10.50;;;;;22.63;67.37;101074.25;4903480;28;47201;-87
2021/09/14 10:46:35;;;;;;;;;13.00;12.00;;;;;22.61;68.67;101065.50;4921598;28;45303;-86
2021/09/14 10:49:00;;;;;;;;;11.25;11.00;;;;;22.62;67.44;101077.91;4919665;28;45370;-86
2021/09/14 10:51:26;;;;;;;;;8.50;8.50;;;;;22.62;68.08;101075.22;4904340;28;47181;-87
2021/09/14 10:53:57;;;;;;;;;11.00;9.25;;;;;22.56;67.82;101063.19;4923048;28;46023;-87
2021/09/14 10:56:24;;;;;;;;;11.00;10.75;;;;;22.62;68.54;101069.03;4899112;29;45471;-88
2021/09/14 10:58:50;;;;;;;;;11.50;10.25;;;;;22.56;68.46;101054.28;4903092;29;45576;-88
2021/09/14 11:01:23;;;;;;;;;13.50;11.75;;;;;22.56;69.08;101048.94;4903532;29;45401;-87
2021/09/14 11:04:00;;;;;;;;;13.00;12.00;;;;;22.65;68.23;101055.38;4885865;29;47277;-86
2021/09/14 11:06:27;;;;;;;;;10.75;10.00;;;;;22.59;67.99;101046.84;4903450;29;45513;-88
2021/09/14 11:09:04;;;;;;;;;10.50;9.00;;;;;22.63;68.32;101035.91;4903366;29;45557;-88
2021/09/14 11:11:30;;;;;;;;;10.25;10.25;;;;;22.62;68.61;101040.41;4900203;29;45289;-87
2021/09/14 11:13:56;;;;;;;;;10.50;9.00;;;;;22.65;67.96;101048.19;4894486;29;45503;-87
2021/09/14 11:16:22;;;;;;;;;9.50;8.75;;;;;22.64;68.40;101038.47;4901318;29;45519;-87
2021/09/14 11:18:48;;;;;;;;;7.00;7.00;;;;;22.76;69.25;101041.16;4885826;29;45250;-87
2021/09/14 11:21:15;;;;;;;;;12.75;12.00;;;;;22.83;68.10;101042.38;4899342;29;45236;-85
2021/09/14 11:23:43;;;;;;;;;11.25;11.25;;;;;22.87;68.42;101041.13;4894069;29;46530;-86
2021/09/14 11:26:11;;;;;;;;;13.75;12.25;;;;;22.90;68.93;101045.41;4893896;29;45547;-87
2021/09/14 11:28:38;;;;;;;;;9.00;7.75;;;;;22.96;67.97;101041.38;4903540;28;46434;-86
2021/09/14 11:31:08;;;;;;;;;12.75;10.75;;;;;22.96;68.00;101039.56;4904275;28;45575;-88
2021/09/14 11:33:33;;;;;;;;;12.25;11.00;;;;;22.99;67.93;101031.25;4893573;29;45479;-86
2021/09/14 11:36:01;;;;;;;;;11.75;10.50;;;;;23.03;67.80;101038.06;4888747;29;45355;-87
2021/09/14 11:38:27;;;;;;;;;16.25;10.75;;;;;23.02;68.66;101041.72;4905310;29;45228;-87
2021/09/14 11:40:57;;;;;;;;;10.00;9.75;;;;;23.01;67.61;101039.19;4899646;29;46373;-87
2021/09/14 11:43:32;;;;;;;;;12.25;11.25;;;;;22.96;67.49;101036.88;4897488;29;46627;-85
2021/09/14 11:45:58;;;;;;;;;13.00;11.00;;;;;22.89;67.83;101033.81;4904264;29;45275;-85
2021/09/14 11:48:25;;;;;;;;;13.50;10.50;;;;;22.85;67.43;101029.69;4902512;29;45270;-86
2021/09/14 11:51:21;;;;;;;;;12.75;12.75;;;;;22.78;68.24;101024.00;4885768;29;45497;-86
2021/09/14 11:53:51;;;;;;;;;6.75;5.25;;;;;22.80;68.20;101039.94;4882340;29;46248;-85
2021/09/14 11:56:19;;;;;;;;;9.50;9.50;;;;;22.75;68.12;101028.72;4892648;29;46583;-86
2021/09/14 11:58:47;;;;;;;;;11.50;10.50;;;;;22.69;68.06;101017.53;4921214;28;45422;-86
2021/09/14 12:01:14;;;;;;;;;10.25;8.00;;;;;22.73;68.13;101030.69;4906198;28;45150;-85
2021/09/14 12:03:43;;;;;;;;;13.00;12.25;;;;;22.69;67.61;101025.56;4898812;28;48226;-85
2021/09/14 12:06:10;;;;;;;;;11.75;7.25;;;;;22.65;67.73;101021.41;4921832;28;45547;-85
2021/09/14 12:08:39;;;;;;;;;11.75;11.00;;;;;22.66;67.61;101017.78;4905532;28;45256;-85
2021/09/14 12:11:05;;;;;;;;;12.25;9.00;;;;;22.69;67.16;101030.09;4927523;28;45628;-85
2021/09/14 12:13:54;;;;;;;;;10.75;9.00;;;;;22.67;67.06;101018.59;4922801;28;46481;-85
2021/09/14 12:16:27;;;;;;;;;13.75;11.50;;;;;22.66;67.51;101024.94;4916101;28;45374;-85
2021/09/14 12:18:54;;;;;;;;;12.50;9.50;;;;;22.65;67.31;101018.72;4912224;28;45466;-85
2021/09/14 12:21:19;;;;;;;;;10.25;7.75;;;;;22.69;68.09;101022.88;4895656;28;45918;-85
2021/09/14 12:23:45;;;;;;;;;9.25;7.00;;;;;22.67;67.21;101010.56;4922921;28;45284;-84
2021/09/14 12:26:22;;;;;;;;;8.00;7.50;;;;;22.65;66.89;101008.00;4922823;28;45462;-84
2021/09/14 12:28:50;;;;;;;;;8.75;7.00;;;;;22.65;66.73;100994.63;4905980;28;45393;-84
2021/09/14 12:31:17;;;;;;;;;6.00;6.00;;;;;22.76;67.10;101003.66;4912817;28;45743;-84
2021/09/14 12:33:43;;;;;;;;;6.25;6.25;;;;;22.76;66.68;100998.28;4911464;28;48110;-85
2021/09/14 12:36:09;;;;;;;;;11.00;9.50;;;;;22.77;67.19;100999.97;4905907;28;45443;-84
2021/09/14 12:38:35;;;;;;;;;10.75;10.50;;;;;22.79;67.10;101000.72;4922602;28;45486;-84
2021/09/14 12:41:00;;;;;;;;;6.00;6.00;;;;;22.79;66.02;100995.38;4905594;28;45389;-84
2021/09/14 12:43:26;;;;;;;;;9.75;9.00;;;;;22.81;65.49;101006.81;4911859;28;45479;-84
2021/09/14 12:45:51;;;;;;;;;9.50;7.75;;;;;22.74;65.92;101002.94;4909334;28;45275;-84
2021/09/14 12:48:17;;;;;;;;;8.50;8.00;;;;;22.74;65.30;100994.91;4915519;28;45232;-84
2021/09/14 12:50:42;;;;;;;;;8.75;6.75;;;;;22.74;65.67;101001.13;4922735;28;45280;-85
2021/09/14 12:53:08;;;;;;;;;9.50;8.50;;;;;22.67;65.92;101000.69;4922990;28;45247;-84
2021/09/14 12:55:35;;;;;;;;;8.75;8.00;;;;;22.65;65.23;100985.72;4921776;28;45209;-84
2021/09/14 12:58:03;;;;;;;;;8.25;8.25;;;;;22.62;65.89;100996.72;4914606;28;45525;-85
2021/09/14 13:00:28;;;;;;;;;12.50;9.00;;;;;22.65;66.17;100994.63;4916298;28;45636;-84
2021/09/14 13:02:54;;;;;;;;;7.50;7.50;;;;;22.68;65.65;100990.84;4903738;29;45432;-84
2021/09/14 13:05:19;;;;;;;;;8.75;7.00;;;;;22.71;66.16;100993.31;4916135;28;45399;-84
2021/09/14 13:07:44;;;;;;;;;10.00;9.75;;;;;22.79;66.66;100992.69;4905092;28;45315;-84
2021/09/14 13:10:12;;;;;;;;;10.75;10.00;;;;;22.91;65.54;101002.41;4922218;28;45244;-84
2021/09/14 13:12:38;;;;;;;;;9.00;9.00;;;;;22.98;65.84;100994.72;4922287;28;45291;-84
2021/09/14 13:17:48;;;;;;;;;10.50;9.25;;;;;23.09;66.38;100993.81;4912311;28;45270;-84
2021/09/14 13:20:13;;;;;;;;;10.00;9.00;;;;;23.13;65.85;100979.19;4922232;28;45419;-84
2021/09/14 13:22:39;;;;;;;;;11.00;7.25;;;;;23.19;65.13;100971.63;4922296;28;45544;-84
2021/09/14 13:25:05;;;;;;;;;7.50;7.50;;;;;23.25;64.85;100980.00;4917740;28;45504;-84
2021/09/14 13:27:31;;;;;;;;;9.00;7.75;;;;;23.19;64.94;100982.34;4903402;29;45398;-84
2021/09/14 13:29:56;;;;;;;;;8.75;8.50;;;;;23.17;64.42;100990.50;4917500;28;45399;-84
2021/09/14 13:32:21;;;;;;;;;6.75;6.75;;;;;23.19;64.12;100982.34;4922056;28;45594;-84
2021/09/14 13:34:48;;;;;;;;;4.25;4.25;;;;;23.20;64.17;100992.06;4922190;28;45327;-84
2021/09/14 13:37:14;;;;;;;;;6.00;6.00;;;;;23.13;64.06;100983.69;4921983;28;45506;-84
2021/09/14 13:39:39;;;;;;;;;9.00;7.25;;;;;23.14;63.69;100985.38;4917627;28;45454;-84
2021/09/14 13:42:06;;;;;;;;;7.00;5.25;;;;;23.10;64.31;100982.13;4916928;28;45362;-84
2021/09/14 13:47:10;;;;;;;;;7.50;7.25;;;;;23.09;63.76;100977.72;4914356;28;45718;-83
2021/09/14 13:49:36;;;;;;;;;8.75;8.75;;;;;23.05;63.24;100973.59;4921431;28;45529;-83
2021/09/14 13:52:01;;;;;;;;;8.50;8.25;;;;;23.02;63.83;100965.81;4920410;28;45402;-83
2021/09/14 13:54:27;;;;;;;;;7.00;5.75;;;;;23.04;63.70;100966.53;4894258;28;45499;-83
2021/09/14 13:56:53;;;;;;;;;10.25;8.00;;;;;23.06;63.44;100971.78;4914152;28;45501;-83
2021/09/14 13:59:18;;;;;;;;;7.75;7.25;;;;;23.06;63.79;100967.28;4913486;28;45346;-83
2021/09/14 14:01:44;;;;;;;;;7.25;7.25;;;;;23.07;64.54;100965.44;4900320;28;47399;-84
2021/09/14 14:04:09;;;;;;;;;7.75;7.75;;;;;23.09;63.49;100972.38;4910024;28;45413;-83
2021/09/14 14:06:34;;;;;;;;;11.25;8.50;;;;;23.13;64.67;100963.09;4917237;28;45515;-83
2021/09/14 14:09:00;;;;;;;;;9.75;7.50;;;;;23.11;63.67;100959.69;4912622;28;45621;-83
2021/09/14 14:11:25;;;;;;;;;9.00;9.00;;;;;23.11;63.63;100951.63;4921624;28;46067;-84
2021/09/14 14:13:50;;;;;;;;;8.00;8.00;;;;;23.11;63.56;100948.97;4921637;28;45246;-83
2021/09/14 14:16:17;;;;;;;;;10.00;8.00;;;;;23.14;63.71;100954.06;4922107;28;45229;-83
2021/09/14 14:18:43;;;;;;;;;8.50;8.50;;;;;23.18;64.34;100953.81;4921217;28;45320;-84
2021/09/14 14:21:09;;;;;;;;;9.75;8.75;;;;;23.18;63.41;100957.34;4904297;28;46914;-84
2021/09/14 14:23:35;;;;;;;;;7.00;6.00;;;;;23.12;63.42;100956.03;4902809;29;45220;-84
2021/09/14 14:26:01;;;;;;;;;8.75;8.75;;;;;23.12;63.18;100956.03;4902550;29;45517;-84
2021/09/14 14:28:26;;;;;;;;;7.00;7.00;;;;;23.06;63.38;100951.19;4918885;28;45452;-84
2021/09/14 14:30:52;;;;;;;;;8.25;7.00;;;;;23.00;63.19;100955.22;4921762;28;46312;-84
2021/09/14 14:33:18;;;;;;;;;10.50;9.75;;;;;22.98;63.45;100953.66;4921536;28;45546;-84
2021/09/14 14:35:43;;;;;;;;;9.25;7.00;;;;;23.01;64.08;100948.91;4922074;28;45390;-84
2021/09/14 14:38:09;;;;;;;;;6.50;6.50;;;;;23.01;63.39;100942.69;4915380;28;45467;-83
2021/09/14 14:40:34;;;;;;;;;7.75;6.75;;;;;23.00;64.12;100941.84;4921221;28;45347;-84
2021/09/14 14:43:00;;;;;;;;;7.00;7.00;;;;;23.06;64.13;100939.63;4915824;28;45422;-83
2021/09/14 14:45:25;;;;;;;;;12.00;9.00;;;;;23.11;65.04;100942.78;4911590;28;45448;-83
2021/09/14 14:47:53;;;;;;;;;10.00;8.50;;;;;23.12;65.38;100934.59;4920957;28;45501;-83
2021/09/14 14:50:22;;;;;;;;;7.00;7.00;;;;;23.21;63.76;100934.81;4921200;28;45316;-83
2021/09/14 14:52:47;;;;;;;;;8.50;7.00;;;;;23.24;63.12;100942.56;4900389;28;45343;-83
2021/09/14 14:55:13;;;;;;;;;8.00;8.00;;;;;23.21;63.20;100932.94;4908248;28;45418;-83
2021/09/14 14:57:39;;;;;;;;;9.25;7.75;;;;;23.23;62.97;100931.03;4905345;28;45165;-83
2021/09/14 15:00:07;;;;;;;;;7.00;6.50;;;;;23.19;62.95;100928.72;4888320;29;46418;-83
2021/09/14 15:02:32;;;;;;;;;10.75;7.75;;;;;23.16;63.42;100933.34;4923320;28;45367;-83
2021/09/14 15:04:58;;;;;;;;;9.00;8.00;;;;;23.15;63.52;100928.97;4924201;28;45398;-83
2021/09/14 15:07:23;;;;;;;;;8.50;7.50;;;;;23.17;63.18;100926.16;4913841;28;45643;-83
2021/09/14 15:09:48;;;;;;;;;5.75;5.75;;;;;23.19;63.29;100934.91;4905134;28;45423;-83
2021/09/14 15:12:14;;;;;;;;;15.50;11.50;;;;;23.19;64.87;100926.88;4914820;28;45239;-83
2021/09/14 15:14:39;;;;;;;;;9.25;8.00;;;;;23.25;63.86;100931.72;4923930;28;45189;-83
2021/09/14 15:17:05;;;;;;;;;9.25;8.50;;;;;23.26;63.00;100930.75;4905577;29;45386;-83
2021/09/14 15:19:30;;;;;;;;;14.00;10.50;;;;;23.25;63.43;100930.88;4905098;29;46247;-83
2021/09/14 15:21:56;;;;;;;;;7.00;7.00;;;;;23.25;63.35;100928.19;4919499;28;45725;-83
2021/09/14 15:24:21;;;;;;;;;10.50;9.25;;;;;23.26;63.10;100925.38;4924337;28;45393;-83
2021/09/14 15:26:47;;;;;;;;;11.50;9.00;;;;;23.25;63.71;100930.88;4923956;28;45346;-83
2021/09/14 15:29:12;;;;;;;;;10.00;8.00;;;;;23.25;65.07;100922.84;4924093;28;45418;-83
2021/09/14 15:31:38;;;;;;;;;10.50;8.25;;;;;23.29;63.66;100918.91;4923689;28;45512;-83
2021/09/14 15:34:03;;;;;;;;;11.00;9.25;;;;;23.27;64.58;100910.16;4919365;28;45565;-83
2021/09/14 15:36:29;;;;;;;;;13.00;10.25;;;;;23.29;64.39;100902.81;4923115;28;45393;-83
2021/09/14 15:38:54;;;;;;;;;9.75;9.75;;;;;23.32;64.31;100897.19;4920446;28;46225;-83
2021/09/14 15:41:20;;;;;;;;;10.00;9.75;;;;;23.31;64.14;100890.13;4920293;28;45381;-83
2021/09/14 15:43:47;;;;;;;;;10.75;10.00;;;;;23.31;63.51;100890.13;4924140;28;45386;-83
2021/09/14 15:46:13;;;;;;;;;8.00;8.00;;;;;23.32;63.54;100894.50;4923797;28;45446;-83
2021/09/14 15:48:38;;;;;;;;;11.50;8.25;;;;;23.33;64.27;100901.59;4906844;28;47012;-83
2021/09/14 15:51:06;;;;;;;;;8.50;8.50;;;;;23.33;63.91;100903.41;4922722;28;45165;-83
2021/09/14 15:53:33;;;;;;;;;9.00;7.50;;;;;23.35;63.34;100915.72;4923846;28;45434;-83
2021/09/14 15:56:03;;;;;;;;;9.00;8.50;;;;;23.32;63.90;100907.06;4917042;28;45382;-83
2021/09/14 15:58:28;;;;;;;;;9.25;9.00;;;;;23.33;64.57;100908.78;4904382;28;45539;-83
2021/09/14 16:00:55;;;;;;;;;9.25;9.25;;;;;23.32;63.75;100907.91;4908153;28;45226;-83
2021/09/14 16:03:21;;;;;;;;;12.00;9.50;;;;;23.30;63.46;100906.34;4923548;28;45326;-83
2021/09/14 16:05:47;;;;;;;;;13.50;9.50;;;;;23.25;63.49;100906.75;4922913;28;45446;-83
2021/09/14 16:08:12;;;;;;;;;11.75;9.50;;;;;23.22;63.95;100907.00;4923024;28;45363;-83
2021/09/14 16:10:38;;;;;;;;;9.75;9.25;;;;;23.22;64.37;100912.34;4923255;28;45330;-83
2021/09/14 16:13:04;;;;;;;;;9.00;9.00;;;;;23.22;64.24;100909.69;4919667;28;45562;-83
2021/09/14 16:15:29;;;;;;;;;10.50;10.50;;;;;23.18;64.12;100908.25;4904529;28;45889;-83
2021/09/14 16:17:54;;;;;;;;;11.50;8.25;;;;;23.18;64.05;100910.94;4911611;28;45382;-84
2021/09/14 16:20:20;;;;;;;;;9.50;9.50;;;;;23.15;63.97;100907.53;4923434;28;45389;-84
2021/09/14 16:22:45;;;;;;;;;11.00;9.25;;;;;23.16;64.31;100913.75;4923122;28;45303;-82
2021/09/14 16:25:12;;;;;;;;;11.00;10.50;;;;;23.13;64.82;100908.63;4916605;28;45547;-85
2021/09/14 16:27:42;;;;;;;;;11.25;11.25;;;;;23.20;65.07;100917.00;4891848;28;47022;-84
2021/09/14 16:30:08;;;;;;;;;12.25;10.75;;;;;23.18;64.75;100913.59;4919750;28;45415;-86
2021/09/14 16:32:38;;;;;;;;;13.75;11.25;;;;;23.19;65.55;100918.84;4919981;28;45503;-82
2021/09/14 16:35:04;;;;;;;;;11.00;10.00;;;;;23.21;64.72;100908.00;4894755;28;47020;-87
2021/09/14 16:37:30;;;;;;;;;9.00;9.00;;;;;23.18;66.16;100911.78;4914292;28;47675;-84
2021/09/14 16:39:55;;;;;;;;;9.50;9.00;;;;;23.22;65.98;100912.34;4922980;28;45396;-83
2021/09/14 16:42:21;;;;;;;;;11.00;10.50;;;;;23.23;65.47;100908.72;4906614;28;45732;-83
2021/09/14 16:44:48;;;;;;;;;11.75;9.75;;;;;23.21;66.40;100894.59;4886902;29;47227;-85
2021/09/14 16:47:17;;;;;;;;;10.00;10.00;;;;;23.25;65.30;100898.69;4904357;28;46370;-85
2021/09/14 16:49:43;;;;;;;;;16.25;12.25;;;;;23.19;66.40;100893.88;4899654;28;46038;-83
2021/09/14 16:52:12;;;;;;;;;14.75;13.00;;;;;23.18;65.75;100895.69;4904936;28;45426;-82
2021/09/14 16:54:39;;;;;;;;;11.75;10.75;;;;;23.17;66.84;100902.03;4915629;28;45338;-82
2021/09/14 16:57:05;;;;;;;;;12.25;11.50;;;;;23.12;67.00;100890.84;4921924;28;45484;-83
2021/09/14 16:59:30;;;;;;;;;14.00;12.25;;;;;23.11;67.00;100891.84;4921617;28;45667;-83
2021/09/14 17:01:55;;;;;;;;;11.75;11.75;;;;;23.13;66.85;100892.56;4900381;28;45280;-82
2021/09/14 17:04:22;;;;;;;;;15.00;12.00;;;;;23.13;67.56;100904.13;4921191;28;45467;-82
2021/09/14 17:06:47;;;;;;;;;11.75;11.75;;;;;23.16;68.00;100913.75;4922170;28;45483;-82
2021/09/14 17:09:12;;;;;;;;;11.50;10.75;;;;;23.12;68.61;100913.16;4915673;28;45545;-82
2021/09/14 17:11:38;;;;;;;;;14.50;14.00;;;;;23.14;68.28;100921.03;4915747;28;45292;-82
2021/09/14 17:14:04;;;;;;;;;12.00;11.75;;;;;23.13;67.71;100925.59;4903355;28;46497;-86
2021/09/14 17:16:29;;;;;;;;;12.75;12.75;;;;;23.13;68.95;100930.09;4898480;28;48687;-83